Time;durP1;ratioP1;P1;durP2;ratioP2;P2;SDS_P1;SDS_P2;PMS_P1;PMS_P2;Temp;Humidity;BMP_temperature;BMP_pressure;BME280_temperature;BME280_humidity;BME280_pressure;Samples;Min_cycle;Max_cycle;Signal;HPM_P1;HPM_P2
2022/11/17 00:01:50;;;;;;;;;;;;;;;-142.75;100.00;75361.84;5032835;28;19963;-70
2022/11/17 00:04:15;;;;;;;;;;;;;;;-142.75;100.00;75357.91;5004832;28;20229;-70
2022/11/17 00:06:40;;;;;;;;;;;;;;;-142.75;100.00;75357.91;5025582;28;20227;-69
2022/11/17 00:09:09;;;;;;;;;;;;;;;-142.75;100.00;75346.09;5040993;28;19923;-69
2022/11/17 00:14:31;;;;;;;;;;;;;;;-142.75;100.00;75312.63;5036609;28;20034;-71
2022/11/17 00:14:32;;;;;;;;;;;;;;;-142.75;100.00;75314.59;5045617;28;20458;-68
2022/11/17 00:16:58;;;;;;;;;;;;;;;-142.75;100.00;75306.72;5039602;28;20034;-71
2022/11/17 00:22:08;;;;;;;;;;;;;;;-142.75;100.00;75292.97;5044148;28;20047;-72
2022/11/17 00:24:33;;;;;;;;;;;;;;;-142.75;100.00;75271.31;5037339;28;19912;-70
2022/11/17 00:27:01;;;;;;;;;;;;;;;-142.75;100.00;75265.41;5040777;28;19912;-69
2022/11/17 00:29:27;;;;;;;;;;;;;;;-142.75;100.00;75267.38;5047792;28;20459;-69
2022/11/17 00:34:37;;;;;;;;;;;;;;;-142.75;100.00;75267.38;5030230;28;20371;-69
2022/11/17 00:37:03;;;;;;;;;;;;;;;-142.75;100.00;75261.47;5018048;28;20432;-71
2022/11/17 00:39:29;;;;;;;;;;;;;;;-142.75;100.00;75267.38;5038055;28;19911;-72
2022/11/17 00:41:54;;;;;;;;;;;;;;;-142.75;100.00;75265.41;5025902;28;20217;-70
2022/11/17 00:44:20;;;;;;;;;;;;;;;-142.75;100.00;75265.41;5026177;28;19911;-67
2022/11/17 00:46:45;;;;;;;;;;;;;;;-142.75;100.00;75251.63;5037801;28;20221;-67
2022/11/17 00:49:11;;;;;;;;;;;;;;;-142.75;100.00;75247.69;5030202;28;20364;-70
2022/11/17 00:51:36;;;;;;;;;;;;;;;-142.75;100.00;75229.97;5031142;28;20186;-68
2022/11/17 00:54:03;;;;;;;;;;;;;;;-142.75;100.00;75229.97;5035582;28;20216;-68
2022/11/17 00:56:28;;;;;;;;;;;;;;;-142.75;100.00;75249.66;5036774;28;19930;-67
2022/11/17 00:58:54;;;;;;;;;;;;;;;-142.75;100.00;75239.81;5024798;28;19956;-70
2022/11/17 01:01:19;;;;;;;;;;;;;;;-142.75;100.00;75237.84;5025640;28;19912;-67
2022/11/17 01:03:44;;;;;;;;;;;;;;;-142.75;100.00;75235.88;5029889;28;20250;-69
2022/11/17 01:06:11;;;;;;;;;;;;;;;-142.75;100.00;75271.31;5016390;28;20212;-72
2022/11/17 01:08:36;;;;;;;;;;;;;;;-142.75;100.00;75239.81;5037275;28;20452;-67
2022/11/17 01:11:09;;;;;;;;;;;;;;;-142.75;100.00;75231.94;5023131;28;19927;-67
2022/11/17 01:13:35;;;;;;;;;;;;;;;-142.75;100.00;75216.22;5001657;28;20084;-68
2022/11/17 01:16:05;;;;;;;;;;;;;;;-142.75;100.00;75214.25;5031218;28;20302;-69
2022/11/17 01:18:30;;;;;;;;;;;;;;;-142.75;100.00;75235.88;5036146;28;19912;-65
2022/11/17 01:20:55;;;;;;;;;;;;;;;-142.75;100.00;75218.19;5046466;28;20073;-69
2022/11/17 01:23:21;;;;;;;;;;;;;;;-142.75;100.00;75218.19;5044341;28;20221;-68
2022/11/17 01:25:46;;;;;;;;;;;;;;;-142.75;100.00;75216.22;5044436;28;20354;-74
2022/11/17 01:28:11;;;;;;;;;;;;;;;-142.75;100.00;75224.09;5013584;28;20233;-67
2022/11/17 01:30:36;;;;;;;;;;;;;;;-142.75;100.00;75198.50;5033595;28;19997;-68
2022/11/17 01:33:02;;;;;;;;;;;;;;;-142.75;100.00;75202.44;5079470;22;20236;-63
2022/11/17 01:35:27;;;;;;;;;;;;;;;-142.75;100.00;75192.59;5053332;27;20235;-66
2022/11/17 01:37:52;;;;;;;;;;;;;;;-142.75;100.00;75176.84;5051604;27;20414;-68
2022/11/17 01:40:18;;;;;;;;;;;;;;;-142.75;100.00;75188.66;5057835;27;20190;-68
2022/11/17 01:42:43;;;;;;;;;;;;;;;-142.75;100.00;75186.69;5061340;27;20325;-66
2022/11/17 01:45:17;;;;;;;;;;;;;;;-142.75;100.00;75176.84;5058627;27;20270;-69
2022/11/17 01:47:46;;;;;;;;;;;;;;;-142.75;100.00;75167.00;5057439;27;19912;-68
2022/11/17 01:50:11;;;;;;;;;;;;;;;-142.75;100.00;75161.13;5054716;27;19937;-67
2022/11/17 01:52:38;;;;;;;;;;;;;;;-142.75;100.00;75159.16;5053625;27;20298;-67
2022/11/17 01:55:05;;;;;;;;;;;;;;;-142.75;100.00;75157.19;5047129;27;19911;-68
2022/11/17 01:57:36;;;;;;;;;;;;;;;-142.75;100.00;75149.31;5056766;27;19911;-69
2022/11/17 02:00:06;;;;;;;;;;;;;;;-142.75;100.00;75137.50;5062233;27;19911;-66
2022/11/17 02:02:32;;;;;;;;;;;;;;;-142.75;100.00;75137.50;5047983;28;19984;-66
2022/11/17 02:05:10;;;;;;;;;;;;;;;-142.75;100.00;75151.28;5063990;27;20460;-65
2022/11/17 02:07:36;;;;;;;;;;;;;;;-142.75;100.00;75129.63;5040045;28;19911;-67
2022/11/17 02:10:02;;;;;;;;;;;;;;;-142.75;100.00;75149.31;5054833;27;20026;-67
2022/11/17 02:12:29;;;;;;;;;;;;;;;-142.75;100.00;75139.47;5048173;27;20208;-65
2022/11/17 02:14:55;;;;;;;;;;;;;;;-142.75;100.00;75125.69;5053691;27;19938;-67
2022/11/17 02:17:21;;;;;;;;;;;;;;;-142.75;100.00;75119.78;5054954;27;20228;-69
2022/11/17 02:20:02;;;;;;;;;;;;;;;-142.75;100.00;75127.66;5045663;28;20057;-67
2022/11/17 02:22:37;;;;;;;;;;;;;;;-142.75;100.00;75121.75;5046826;28;19942;-67
2022/11/17 02:25:21;;;;;;;;;;;;;;;-142.75;100.00;75123.72;5051055;27;19912;-66
2022/11/17 02:27:52;;;;;;;;;;;;;;;-142.75;100.00;75121.75;5062879;27;19912;-67
2022/11/17 02:30:18;;;;;;;;;;;;;;;-142.75;100.00;75113.88;5060080;27;19942;-68
2022/11/17 02:33:07;;;;;;;;;;;;;;;-142.75;100.00;75109.94;5066315;27;19911;-67
2022/11/17 02:35:44;;;;;;;;;;;;;;;-142.75;100.00;75109.94;5050131;27;19937;-69
2022/11/17 02:38:09;;;;;;;;;;;;;;;-142.75;100.00;75111.91;5038684;27;19911;-66
2022/11/17 02:40:57;;;;;;;;;;;;;;;-142.75;100.00;75109.94;5047249;28;20212;-67
2022/11/17 02:46:15;;;;;;;;;;;;;;;-142.75;100.00;75082.41;5052170;27;20082;-67
2022/11/17 02:48:45;;;;;;;;;;;;;;;-142.75;100.00;75068.63;5049639;27;19912;-67
2022/11/17 02:51:12;;;;;;;;;;;;;;;-142.75;100.00;75078.47;5058168;27;19911;-67
2022/11/17 02:53:39;;;;;;;;;;;;;;;-142.75;100.00;75070.59;5061915;27;19915;-67
2022/11/17 02:56:05;;;;;;;;;;;;;;;-142.75;100.00;75070.59;5045115;28;20750;-67
2022/11/17 02:58:31;;;;;;;;;;;;;;;-142.75;100.00;75062.72;5052380;27;19916;-67
2022/11/17 03:00:59;;;;;;;;;;;;;;;-142.75;100.00;75066.66;5046108;28;20155;-67
2022/11/17 03:03:41;;;;;;;;;;;;;;;-142.75;100.00;75062.72;5056173;27;19972;-67
2022/11/17 03:06:39;;;;;;;;;;;;;;;-142.75;100.00;75060.75;5063356;27;19912;-67
2022/11/17 03:09:04;;;;;;;;;;;;;;;-142.75;100.00;75050.91;5011165;27;19911;-67
2022/11/17 03:11:37;;;;;;;;;;;;;;;-142.75;100.00;75060.75;5048041;27;19959;-67
2022/11/17 03:14:07;;;;;;;;;;;;;;;-142.75;100.00;75050.91;5063593;27;19912;-67
2022/11/17 03:16:41;;;;;;;;;;;;;;;-142.75;100.00;75043.03;5060471;27;19923;-67
2022/11/17 03:19:12;;;;;;;;;;;;;;;-142.75;100.00;75043.03;5046750;28;19924;-67
2022/11/17 03:21:44;;;;;;;;;;;;;;;-142.75;100.00;75031.25;5050872;27;19937;-67
2022/11/17 03:24:12;;;;;;;;;;;;;;;-142.75;100.00;75029.28;5044945;28;19934;-67
2022/11/17 03:26:39;;;;;;;;;;;;;;;-142.75;100.00;75029.28;5054532;28;19911;-67
2022/11/17 03:29:07;;;;;;;;;;;;;;;-142.75;100.00;75015.50;5049291;28;20447;-67
2022/11/17 03:31:33;;;;;;;;;;;;;;;-142.75;100.00;75009.59;5040880;28;19912;-67
2022/11/17 03:34:02;;;;;;;;;;;;;;;-142.75;100.00;75007.63;5059453;28;19979;-67
2022/11/17 03:36:33;;;;;;;;;;;;;;;-142.75;100.00;74995.81;5047771;28;20719;-67
2022/11/17 03:39:02;;;;;;;;;;;;;;;-142.75;100.00;74987.94;5043191;28;19938;-66
2022/11/17 03:41:29;;;;;;;;;;;;;;;-142.75;100.00;74984.00;5032864;27;20444;-67
2022/11/17 03:43:56;;;;;;;;;;;;;;;-142.75;100.00;74982.03;5063793;27;19938;-67
2022/11/17 03:46:23;;;;;;;;;;;;;;;-142.75;100.00;74972.22;5064036;27;19922;-67
2022/11/17 03:48:52;;;;;;;;;;;;;;;-142.75;100.00;74968.28;5058399;27;20052;-67
2022/11/17 03:51:20;;;;;;;;;;;;;;;-142.75;100.00;74946.63;5054272;27;19946;-67
2022/11/17 03:53:46;;;;;;;;;;;;;;;-142.75;100.00;74952.53;5048997;28;20046;-64
2022/11/17 03:56:30;;;;;;;;;;;;;;;-142.75;100.00;74942.69;5047939;27;20026;-66
2022/11/17 03:59:07;;;;;;;;;;;;;;;-142.75;100.00;74948.59;5062121;27;19946;-64
2022/11/17 04:01:34;;;;;;;;;;;;;;;-142.75;100.00;74954.50;5062783;27;19911;-63
2022/11/17 04:03:59;;;;;;;;;;;;;;;-142.75;100.00;74952.53;5065389;27;19911;-67
2022/11/17 04:06:24;;;;;;;;;;;;;;;-142.75;100.00;74940.72;5067131;27;19907;-67
2022/11/17 04:08:49;;;;;;;;;;;;;;;-142.75;100.00;74944.66;5057548;27;20363;-63
2022/11/17 04:16:42;;;;;;;;;;;;;;;-142.75;100.00;74968.28;5040164;27;19966;-66
2022/11/17 04:19:08;;;;;;;;;;;;;;;-142.75;100.00;74956.47;5050322;27;19911;-67
2022/11/17 04:21:33;;;;;;;;;;;;;;;-142.75;100.00;74956.47;5052507;27;20208;-65
2022/11/17 04:23:58;;;;;;;;;;;;;;;-142.75;100.00;74964.34;5049869;27;20216;-65
2022/11/17 04:29:08;;;;;;;;;;;;;;;-142.75;100.00;74966.31;5056695;27;20743;-64
2022/11/17 04:31:33;;;;;;;;;;;;;;;-142.75;100.00;74984.00;5066493;27;19958;-66
2022/11/17 04:34:00;;;;;;;;;;;;;;;-142.75;100.00;74970.25;5028386;27;19911;-66
2022/11/17 04:36:33;;;;;;;;;;;;;;;-142.75;100.00;74962.38;5059473;27;19923;-65
2022/11/17 04:38:59;;;;;;;;;;;;;;;-142.75;100.00;74962.38;5042652;27;19912;-68
2022/11/17 04:44:10;;;;;;;;;;;;;;;-142.75;100.00;74964.34;5048086;27;19923;-66
2022/11/17 04:46:36;;;;;;;;;;;;;;;-142.75;100.00;74964.34;5067952;27;19911;-69
2022/11/17 04:49:01;;;;;;;;;;;;;;;-142.75;100.00;74976.16;5067139;27;19984;-67
2022/11/17 04:51:27;;;;;;;;;;;;;;;-142.75;100.00;74976.16;5067353;27;20467;-67
2022/11/17 04:53:53;;;;;;;;;;;;;;;-142.75;100.00;74952.53;5067681;27;20289;-67
2022/11/17 04:56:19;;;;;;;;;;;;;;;-142.75;100.00;74964.34;5067290;27;20075;-67
2022/11/17 04:58:44;;;;;;;;;;;;;;;-142.75;100.00;74960.41;5067365;27;20080;-68
2022/11/17 05:01:12;;;;;;;;;;;;;;;-142.75;100.00;74950.56;5067210;27;20177;-68
2022/11/17 05:03:38;;;;;;;;;;;;;;;-142.75;100.00;74958.44;5067388;27;19933;-67
2022/11/17 05:06:03;;;;;;;;;;;;;;;-142.75;100.00;74956.47;5067433;27;20448;-67
2022/11/17 05:08:28;;;;;;;;;;;;;;;-142.75;100.00;74950.56;5067129;27;19935;-67
2022/11/17 05:13:40;;;;;;;;;;;;;;;-142.75;100.00;74948.59;5064539;27;20313;-67
2022/11/17 05:18:49;;;;;;;;;;;;;;;-142.75;100.00;74946.63;5064893;27;20211;-67
2022/11/17 05:21:14;;;;;;;;;;;;;;;-142.75;100.00;74948.59;5067047;27;20451;-65
2022/11/17 05:23:55;;;;;;;;;;;;;;;-142.75;100.00;74944.66;5066742;27;20208;-67
2022/11/17 05:26:22;;;;;;;;;;;;;;;-142.75;100.00;74974.19;5067027;27;19911;-66
2022/11/17 05:28:47;;;;;;;;;;;;;;;-142.75;100.00;74950.56;5066638;27;20017;-67
2022/11/17 05:31:13;;;;;;;;;;;;;;;-142.75;100.00;74960.41;5066749;27;20207;-65
2022/11/17 05:33:39;;;;;;;;;;;;;;;-142.75;100.00;74946.63;5066497;27;20220;-67
2022/11/17 05:36:04;;;;;;;;;;;;;;;-142.75;100.00;74936.78;5066677;27;20210;-66
2022/11/17 05:38:29;;;;;;;;;;;;;;;-142.75;100.00;74936.78;5068200;27;20195;-67
2022/11/17 05:40:55;;;;;;;;;;;;;;;-142.75;100.00;74942.69;5066600;27;20205;-65
2022/11/17 05:43:20;;;;;;;;;;;;;;;-142.75;100.00;74932.84;5066665;27;20412;-67
2022/11/17 05:45:45;;;;;;;;;;;;;;;-142.75;100.00;74921.06;5066680;27;20226;-68
2022/11/17 05:48:11;;;;;;;;;;;;;;;-142.75;100.00;74934.81;5066099;27;20207;-68
2022/11/17 05:50:36;;;;;;;;;;;;;;;-142.75;100.00;74924.97;5066485;27;20172;-68
2022/11/17 05:53:02;;;;;;;;;;;;;;;-142.75;100.00;74928.91;5067022;27;20110;-68
2022/11/17 05:55:27;;;;;;;;;;;;;;;-142.75;100.00;74921.06;5066674;27;20369;-68
2022/11/17 05:57:53;;;;;;;;;;;;;;;-142.75;100.00;74940.72;5064248;27;20305;-68
2022/11/17 06:00:18;;;;;;;;;;;;;;;-142.75;100.00;74930.88;5066163;27;19934;-69
2022/11/17 06:02:50;;;;;;;;;;;;;;;-142.75;100.00;74924.97;5064930;27;20366;-68
2022/11/17 06:05:16;;;;;;;;;;;;;;;-142.75;100.00;74942.69;5066252;27;19964;-65
2022/11/17 06:07:41;;;;;;;;;;;;;;;-142.75;100.00;74928.91;5065850;27;19911;-68
2022/11/17 06:10:07;;;;;;;;;;;;;;;-142.75;100.00;74921.06;5066084;27;19911;-67
2022/11/17 06:12:32;;;;;;;;;;;;;;;-142.75;100.00;74930.88;5065986;27;19955;-67
2022/11/17 06:14:57;;;;;;;;;;;;;;;-142.75;100.00;74948.59;5065902;27;20243;-67
2022/11/17 06:17:28;;;;;;;;;;;;;;;-142.75;100.00;74956.47;5066157;27;20206;-67
2022/11/17 06:19:56;;;;;;;;;;;;;;;-142.75;100.00;74944.66;5066236;27;19934;-68
2022/11/17 06:22:22;;;;;;;;;;;;;;;-142.75;100.00;74962.38;5065554;27;20054;-68
2022/11/17 06:24:48;;;;;;;;;;;;;;;-142.75;100.00;74958.44;5065962;27;20018;-66
2022/11/17 06:27:14;;;;;;;;;;;;;;;-142.75;100.00;74956.47;5065915;27;20204;-68
2022/11/17 06:29:41;;;;;;;;;;;;;;;-142.75;100.00;74972.22;5066991;27;19975;-66
2022/11/17 06:32:07;;;;;;;;;;;;;;;-142.75;100.00;74956.47;5044961;27;19972;-68
2022/11/17 06:34:33;;;;;;;;;;;;;;;-142.75;100.00;74970.25;5065267;27;19907;-69
2022/11/17 06:36:59;;;;;;;;;;;;;;;-142.75;100.00;74960.41;5044998;27;19907;-70
2022/11/17 06:39:24;;;;;;;;;;;;;;;-142.75;100.00;74960.41;5065173;27;20347;-69
2022/11/17 06:41:49;;;;;;;;;;;;;;;-142.75;100.00;74976.16;5065147;27;20207;-69
2022/11/17 06:44:15;;;;;;;;;;;;;;;-142.75;100.00;74966.31;5065584;27;20235;-68
2022/11/17 06:46:40;;;;;;;;;;;;;;;-142.75;100.00;74980.06;5044301;27;20357;-69
2022/11/17 06:49:06;;;;;;;;;;;;;;;-142.75;100.00;74980.06;5065260;27;20200;-68
2022/11/17 06:51:32;;;;;;;;;;;;;;;-142.75;100.00;74972.22;5065109;27;19968;-69
2022/11/17 06:53:57;;;;;;;;;;;;;;;-142.75;100.00;74982.03;5064906;27;20274;-68
2022/11/17 06:56:22;;;;;;;;;;;;;;;-142.75;100.00;74984.00;5065337;27;20227;-68
2022/11/17 06:58:48;;;;;;;;;;;;;;;-142.75;100.00;74976.16;5047828;27;20196;-69
2022/11/17 07:01:13;;;;;;;;;;;;;;;-142.75;100.00;74995.81;5064942;27;19917;-68
2022/11/17 07:03:40;;;;;;;;;;;;;;;-142.75;100.00;74993.84;5065094;27;20247;-68
2022/11/17 07:06:06;;;;;;;;;;;;;;;-142.75;100.00;74991.88;5064890;27;19911;-67
2022/11/17 07:08:32;;;;;;;;;;;;;;;-142.75;100.00;75019.44;5065005;27;19911;-68
2022/11/17 07:11:04;;;;;;;;;;;;;;;-142.75;100.00;75009.59;5064898;27;20032;-70
2022/11/17 07:13:30;;;;;;;;;;;;;;;-142.75;100.00;75021.41;5060087;27;19958;-69
2022/11/17 07:16:00;;;;;;;;;;;;;;;-142.75;100.00;75025.34;5044024;28;19908;-69
2022/11/17 07:18:25;;;;;;;;;;;;;;;-142.75;100.00;75045.00;5036722;28;19908;-68
2022/11/17 07:20:51;;;;;;;;;;;;;;;-142.75;100.00;75039.13;5029989;28;20193;-68
2022/11/17 07:23:16;;;;;;;;;;;;;;;-142.75;100.00;75039.13;5041892;28;19916;-68
2022/11/17 07:25:41;;;;;;;;;;;;;;;-142.75;100.00;75045.00;5041778;28;20412;-68
2022/11/17 07:28:07;;;;;;;;;;;;;;;-142.75;100.00;75052.88;5044432;28;20292;-69
2022/11/17 07:30:32;;;;;;;;;;;;;;;-142.75;100.00;75045.00;5023791;28;20194;-69
2022/11/17 07:33:01;;;;;;;;;;;;;;;-142.75;100.00;75050.91;5060128;22;20306;-67
2022/11/17 07:35:27;;;;;;;;;;;;;;;-142.75;100.00;75054.84;5042366;28;19938;-69
2022/11/17 07:37:56;;;;;;;;;;;;;;;-142.75;100.00;75072.56;5044383;28;20438;-70
2022/11/17 07:40:22;;;;;;;;;;;;;;;-142.75;100.00;75066.66;5052040;28;20006;-66
2022/11/17 07:42:48;;;;;;;;;;;;;;;-142.75;100.00;75066.66;5041815;28;20212;-66
2022/11/17 07:45:13;;;;;;;;;;;;;;;-142.75;100.00;75070.59;5032436;28;20221;-66
2022/11/17 07:47:38;;;;;;;;;;;;;;;-142.75;100.00;75078.47;5066367;28;19928;-69
2022/11/17 07:50:04;;;;;;;;;;;;;;;-142.75;100.00;75084.38;5033741;28;20240;-66
2022/11/17 07:52:29;;;;;;;;;;;;;;;-142.75;100.00;75072.56;5021738;28;20340;-66
2022/11/17 07:54:55;;;;;;;;;;;;;;;-142.75;100.00;75080.44;5021736;28;20117;-66
2022/11/17 07:57:20;;;;;;;;;;;;;;;-142.75;100.00;75094.22;5020167;28;20496;-67
2022/11/17 07:59:45;;;;;;;;;;;;;;;-142.75;100.00;75088.31;5001467;28;20209;-67
2022/11/17 08:02:11;;;;;;;;;;;;;;;-142.75;100.00;75094.22;5018538;28;20081;-66
2022/11/17 08:04:36;;;;;;;;;;;;;;;-142.75;100.00;75082.41;5003691;28;20186;-66
2022/11/17 08:07:02;;;;;;;;;;;;;;;-142.75;100.00;75086.34;5014509;28;19980;-66
2022/11/17 08:09:27;;;;;;;;;;;;;;;-142.75;100.00;75086.34;5021648;28;20184;-66
2022/11/17 08:11:52;;;;;;;;;;;;;;;-142.75;100.00;75090.28;5021734;28;19985;-66
2022/11/17 08:14:18;;;;;;;;;;;;;;;-142.75;100.00;75082.41;5021612;28;20244;-66
2022/11/17 08:16:43;;;;;;;;;;;;;;;-142.75;100.00;75094.22;5021483;28;20098;-66
2022/11/17 08:19:10;;;;;;;;;;;;;;;-142.75;100.00;75090.28;5021598;28;20268;-66
2022/11/17 08:21:36;;;;;;;;;;;;;;;-142.75;100.00;75104.03;5021675;28;20051;-66
2022/11/17 08:24:01;;;;;;;;;;;;;;;-142.75;100.00;75094.22;5021568;28;20233;-66
2022/11/17 08:26:27;;;;;;;;;;;;;;;-142.75;100.00;75104.03;5025155;28;20134;-66
2022/11/17 08:28:52;;;;;;;;;;;;;;;-142.75;100.00;75094.22;5025446;28;19908;-66
2022/11/17 08:31:17;;;;;;;;;;;;;;;-142.75;100.00;75102.06;5027122;28;20259;-66
2022/11/17 08:33:42;;;;;;;;;;;;;;;-142.75;100.00;75106.00;5025195;28;20388;-66
2022/11/17 08:36:08;;;;;;;;;;;;;;;-142.75;100.00;75121.75;5021295;28;20298;-65
2022/11/17 08:38:34;;;;;;;;;;;;;;;-142.75;100.00;75111.91;5052820;28;19909;-68
2022/11/17 08:41:04;;;;;;;;;;;;;;;-142.75;100.00;75117.81;5064316;28;19908;-68
2022/11/17 08:43:29;;;;;;;;;;;;;;;-142.75;100.00;75119.78;5063978;28;19934;-67
2022/11/17 08:45:55;;;;;;;;;;;;;;;-142.75;100.00;75131.59;5079045;28;19908;-68
2022/11/17 08:48:20;;;;;;;;;;;;;;;-142.75;100.00;75107.97;5082983;28;20351;-69
2022/11/17 08:50:46;;;;;;;;;;;;;;;-142.75;100.00;75121.75;5070656;28;19951;-68
2022/11/17 08:53:15;;;;;;;;;;;;;;;-142.75;100.00;75117.81;5066417;28;19915;-67
2022/11/17 08:55:40;;;;;;;;;;;;;;;-142.75;100.00;75125.69;5048261;28;19909;-68
2022/11/17 08:58:06;;;;;;;;;;;;;;;-142.75;100.00;75137.50;5079251;28;19970;-68
2022/11/17 09:00:31;;;;;;;;;;;;;;;-142.75;100.00;75149.31;5047937;28;19919;-68
2022/11/17 09:02:56;;;;;;;;;;;;;;;-142.75;100.00;75147.34;5064974;28;19918;-67
2022/11/17 09:05:23;;;;;;;;;;;;;;;-142.75;100.00;75168.97;5065791;28;19962;-68
2022/11/17 09:07:48;;;;;;;;;;;;;;;-142.75;100.00;75161.13;5069042;28;19943;-68
2022/11/17 09:10:14;;;;;;;;;;;;;;;-142.75;100.00;75168.97;5049129;28;20378;-66
2022/11/17 09:12:39;;;;;;;;;;;;;;;-142.75;100.00;75159.16;5064838;28;20007;-68
2022/11/17 09:15:04;;;;;;;;;;;;;;;-142.75;100.00;75168.97;5063650;28;19915;-68
2022/11/17 09:17:30;;;;;;;;;;;;;;;-142.75;100.00;75174.88;5065312;28;19908;-68
2022/11/17 09:19:55;;;;;;;;;;;;;;;-142.75;100.00;75182.75;5065557;28;19908;-68
2022/11/17 09:22:20;;;;;;;;;;;;;;;-142.75;100.00;75176.84;5074776;28;20046;-68
2022/11/17 09:24:46;;;;;;;;;;;;;;;-142.75;100.00;75178.81;5073704;28;20669;-68
2022/11/17 09:27:11;;;;;;;;;;;;;;;-142.75;100.00;75168.97;5078875;28;20273;-68
2022/11/17 09:29:36;;;;;;;;;;;;;;;-142.75;100.00;75167.00;5083446;28;20693;-68
2022/11/17 09:32:01;;;;;;;;;;;;;;;-142.75;100.00;75167.00;5081025;28;19911;-67
2022/11/17 09:34:28;;;;;;;;;;;;;;;-142.75;100.00;75176.84;5073130;28;20667;-68
2022/11/17 09:36:53;;;;;;;;;;;;;;;-142.75;100.00;75168.97;5072522;28;20007;-68
2022/11/17 09:39:18;;;;;;;;;;;;;;;-142.75;100.00;75176.84;5082523;28;19968;-68
2022/11/17 09:41:53;;;;;;;;;;;;;;;-142.75;100.00;75178.81;5067781;28;19912;-69
2022/11/17 09:44:39;;;;;;;;;;;;;;;-142.75;100.00;75194.56;5078612;28;19920;-69
2022/11/17 09:47:19;;;;;;;;;;;;;;;-142.75;100.00;75186.69;5077231;28;19927;-68
2022/11/17 09:49:56;;;;;;;;;;;;;;;-142.75;100.00;75196.53;5083850;28;20510;-68
2022/11/17 09:52:29;;;;;;;;;;;;;;;-142.75;100.00;75190.63;5083129;28;20008;-68
2022/11/17 09:55:06;;;;;;;;;;;;;;;-142.75;100.00;75192.59;5065592;28;19950;-68
2022/11/17 09:57:40;;;;;;;;;;;;;;;-142.75;100.00;75188.66;5064650;28;19911;-68
2022/11/17 10:00:13;;;;;;;;;;;;;;;-142.75;100.00;75192.59;5082766;28;19912;-68
2022/11/17 10:02:39;;;;;;;;;;;;;;;-142.75;100.00;75194.56;5083311;28;19915;-68
2022/11/17 10:05:05;;;;;;;;;;;;;;;-142.75;100.00;75196.53;5082898;28;19912;-68
2022/11/17 10:07:33;;;;;;;;;;;;;;;-142.75;100.00;75192.59;5076323;28;19948;-69
2022/11/17 10:10:00;;;;;;;;;;;;;;;-142.75;100.00;75196.53;5071431;28;19912;-68
2022/11/17 10:12:29;;;;;;;;;;;;;;;-142.75;100.00;75216.22;5069730;28;20007;-67
2022/11/17 10:14:55;;;;;;;;;;;;;;;-142.75;100.00;75212.28;5066908;28;20413;-67
2022/11/17 10:17:20;;;;;;;;;;;;;;;-142.75;100.00;75210.31;5061515;28;19929;-69
2022/11/17 10:19:45;;;;;;;;;;;;;;;-142.75;100.00;75214.25;5080481;28;19922;-68
2022/11/17 10:22:21;;;;;;;;;;;;;;;-142.75;100.00;75214.25;5058278;28;19923;-67
2022/11/17 10:24:49;;;;;;;;;;;;;;;-142.75;100.00;75243.75;5071986;28;19912;-68
2022/11/17 10:27:20;;;;;;;;;;;;;;;-142.75;100.00;75243.75;5075510;28;19912;-69
2022/11/17 10:29:55;;;;;;;;;;;;;;;-142.75;100.00;75233.91;5078710;28;19970;-69
2022/11/17 10:32:20;;;;;;;;;;;;;;;-142.75;100.00;75243.75;5053915;28;19927;-67
2022/11/17 10:34:46;;;;;;;;;;;;;;;-142.75;100.00;75263.44;5063797;28;19916;-68
2022/11/17 10:37:11;;;;;;;;;;;;;;;-142.75;100.00;75249.66;5075773;28;20003;-69
2022/11/17 10:39:38;;;;;;;;;;;;;;;-142.75;100.00;75259.50;5071941;28;19973;-68
2022/11/17 10:42:23;;;;;;;;;;;;;;;-142.75;100.00;75259.50;5067273;28;19919;-68
2022/11/17 10:44:51;;;;;;;;;;;;;;;-142.75;100.00;75265.41;5072627;28;19955;-68
2022/11/17 10:47:24;;;;;;;;;;;;;;;-142.75;100.00;75261.47;5070304;28;19912;-70
2022/11/17 10:50:03;;;;;;;;;;;;;;;-142.75;100.00;75251.63;5067194;28;20027;-66
2022/11/17 10:52:28;;;;;;;;;;;;;;;-142.75;100.00;75269.34;5054747;28;20464;-69
2022/11/17 10:55:09;;;;;;;;;;;;;;;-142.75;100.00;75263.44;5063499;28;19916;-68
2022/11/17 10:57:34;;;;;;;;;;;;;;;-142.75;100.00;75257.53;5054258;28;19919;-69
2022/11/17 11:00:00;;;;;;;;;;;;;;;-142.75;100.00;75259.50;5070840;28;19915;-69
2022/11/17 11:02:36;;;;;;;;;;;;;;;-142.75;100.00;75245.72;5058152;28;19916;-69
2022/11/17 11:05:05;;;;;;;;;;;;;;;-142.75;100.00;75261.47;5071635;28;19922;-66
2022/11/17 11:07:30;;;;;;;;;;;;;;;-142.75;100.00;75267.38;5071505;28;19912;-69
2022/11/17 11:10:05;;;;;;;;;;;;;;;-142.75;100.00;75267.38;5062097;28;19912;-69
2022/11/17 11:12:34;;;;;;;;;;;;;;;-142.75;100.00;75271.31;5056075;28;20381;-69
2022/11/17 11:15:01;;;;;;;;;;;;;;;-142.75;100.00;75271.31;5065421;28;20341;-69
2022/11/17 11:17:26;;;;;;;;;;;;;;;-142.75;100.00;75285.09;5065256;28;19912;-70
2022/11/17 11:19:52;;;;;;;;;;;;;;;-142.75;100.00;75275.25;5067649;28;19927;-68
2022/11/17 11:22:26;;;;;;;;;;;;;;;-142.75;100.00;75281.16;5073160;28;19990;-69
2022/11/17 11:25:10;;;;;;;;;;;;;;;-142.75;100.00;75265.41;5069940;28;20347;-68
2022/11/17 11:27:54;;;;;;;;;;;;;;;-142.75;100.00;75269.34;5071655;28;19954;-69
2022/11/17 11:30:19;;;;;;;;;;;;;;;-142.75;100.00;75263.44;5071624;28;19912;-69
2022/11/17 11:32:44;;;;;;;;;;;;;;;-142.75;100.00;75277.22;5051582;28;19922;-69
2022/11/17 11:35:09;;;;;;;;;;;;;;;-142.75;100.00;75271.31;5073975;28;20012;-68
2022/11/17 11:37:50;;;;;;;;;;;;;;;-142.75;100.00;75283.13;5052606;28;19916;-69
2022/11/17 11:40:22;;;;;;;;;;;;;;;-142.75;100.00;75275.25;5073123;28;19916;-69
2022/11/17 11:42:57;;;;;;;;;;;;;;;-142.75;100.00;75261.47;5067464;28;19919;-69
2022/11/17 11:45:26;;;;;;;;;;;;;;;-142.75;100.00;75271.31;5051341;28;19952;-67
2022/11/17 11:48:06;;;;;;;;;;;;;;;-142.75;100.00;75247.69;5069603;28;20699;-67
2022/11/17 11:50:34;;;;;;;;;;;;;;;-142.75;100.00;75265.41;5055255;28;19939;-68
2022/11/17 11:53:05;;;;;;;;;;;;;;;-142.75;100.00;75247.69;5072434;28;19923;-68
2022/11/17 11:55:33;;;;;;;;;;;;;;;-142.75;100.00;75263.44;5070721;28;20018;-69
2022/11/17 11:58:01;;;;;;;;;;;;;;;-142.75;100.00;75243.75;5071621;28;19920;-69
2022/11/17 12:00:26;;;;;;;;;;;;;;;-142.75;100.00;75255.56;5055079;28;20836;-69
2022/11/17 12:03:03;;;;;;;;;;;;;;;-142.75;100.00;75247.69;5074351;28;19913;-68
2022/11/17 12:05:36;;;;;;;;;;;;;;;-142.75;100.00;75247.69;5076019;28;19924;-68
2022/11/17 12:08:07;;;;;;;;;;;;;;;-142.75;100.00;75249.66;5074672;28;20021;-65
2022/11/17 12:10:35;;;;;;;;;;;;;;;-142.75;100.00;75259.50;5073076;28;20323;-68
2022/11/17 12:13:02;;;;;;;;;;;;;;;-142.75;100.00;75251.63;5050658;28;20664;-66
2022/11/17 12:15:27;;;;;;;;;;;;;;;-142.75;100.00;75281.16;5055867;28;19916;-68
2022/11/17 12:17:58;;;;;;;;;;;;;;;-142.75;100.00;75263.44;5068809;28;19950;-69
2022/11/17 12:20:30;;;;;;;;;;;;;;;-142.75;100.00;75253.59;5065003;28;19915;-69
2022/11/17 12:23:15;;;;;;;;;;;;;;;-142.75;100.00;75257.53;5075105;28;20706;-69
2022/11/17 12:25:48;;;;;;;;;;;;;;;-142.75;100.00;75261.47;5064125;28;19915;-69
2022/11/17 12:28:34;;;;;;;;;;;;;;;-142.75;100.00;75261.47;5056095;28;20034;-70
2022/11/17 12:31:03;;;;;;;;;;;;;;;-142.75;100.00;75269.34;5076871;28;19907;-69
2022/11/17 12:34:07;;;;;;;;;;;;;;;-142.75;100.00;75261.47;5073954;28;20007;-68
2022/11/17 12:36:33;;;;;;;;;;;;;;;-142.75;100.00;75259.50;5064314;28;19909;-68
2022/11/17 12:38:59;;;;;;;;;;;;;;;-142.75;100.00;75275.25;5074982;28;19920;-69
2022/11/17 12:41:43;;;;;;;;;;;;;;;-142.75;100.00;75275.25;5072813;28;20014;-68
2022/11/17 12:44:27;;;;;;;;;;;;;;;-142.75;100.00;75279.19;5063768;28;19919;-68
2022/11/17 12:46:54;;;;;;;;;;;;;;;-142.75;100.00;75294.94;5069075;28;19947;-69
2022/11/17 12:49:30;;;;;;;;;;;;;;;-142.75;100.00;75273.28;5077206;28;19908;-68